Meriden, CT

4:04 AM EST on February 09, 2016 (GMT -0500)
Prospect Avenue | | Change Station
CLOSE
Current Station
Personal Weather Station
Location: Meriden, CT
Elevation: 292 ft
Nearby Weather Stations

Elev 292 ft 41.53 °N, 72.82 °W | Updated 3 minutes ago

Light Snow
Light Snow
20.5 °F
Feels Like 20 °F
N
0.0
Wind Variable Wind from NE

Today
High -- | Low -- °F
--% Chance of Precip.
Yesterday
High -- | Low -- °F
Precip. -- in
Pressure 29.75 in
Visibility 2.5 miles
Clouds Overcast 3200 ft
Windchill 20 °F
Dew Point 19 °F
Humidity 95%
Rainfall 0.00 in
Snow Depth Not available.
6:54 AM 5:16 PM
New Moon, 1% visible
METAR KMMK 090853Z AUTO 36003KT 2 1/2SM -SN OVC032 M05/M08 A2974 RMK AO2 SLP074 P0001 60001 T10501078 55008 TSNO
Pressure 29.75 in
Visibility 2.5 miles
Clouds Overcast 3200 ft
Windchill 20 °F
Dew Point 19 °F
Humidity 95%
Rainfall 0.00 in
Snow Depth Not available.
6:54 AM 5:16 PM
New Moon, 1% visible
METAR KMMK 090853Z AUTO 36003KT 2 1/2SM -SN OVC032 M05/M08 A2974 RMK AO2 SLP074 P0001 60001 T10501078 55008 TSNO

10-Day Weather Forecast

Almanac

Astronomy

Feb. 09, 2016 Rise Set
Actual Time
Civil Twilight
Nautical Twilight
Astronomical Twilight
Moon
Length of Visible Light
Length of Day
Tomorrow will be .
, % of the Moon is Illuminated

Today's Extremes

State Highs State Lows

Community

WunderPhotos

Upload Photos

1,891,571 photos uploaded!

WunderBlog® & News

Nearby

Air Quality

  Air Quality AQ Index Pollutant
Not available.

Snow Depth

Station Depth Elevation

Earthquake Activity

City Distance Mag. Time & Date
Minimum magnitude displayed is 2.5.

Coastal Water Temperatures

Place Temperature

Stations

Nearby Weather Stations

Station Location Temp. Windchill Dew Point Humidity Wind Precip. Elev Updated Type
                   

Watches & Warnings

There are currently no watches in effect.